Terminal Aerodrome Forecast
Issued by NWS Cleveland, OH

Home | Current Version | Previous Version | Text Only | Print | Product List | Glossary On
Versions: 1 2 3 4 5 6 7 8 9 10 11 12 13 14 15 16 17 18 19 20 21
000
FTUS41 KCLE 220500
TAFTOL
TAF
KTOL 220529Z 2206/2306 10002KT 5SM BR BKN250
      TEMPO 2206/2209 3SM BR
     FM220900 10002KT 3SM BR BKN250
      TEMPO 2209/2213 1SM BR
     FM221400 12005KT 6SM HZ SCT045 BKN120
     FM221800 12007KT P6SM OVC045
     FM222200 12007KT P6SM OVC025
     FM230300 10006KT 5SM BR VCSH OVC025=

USA.gov is the U.S. government's official web portal to all federal, state and local government web resources and services.